sensor_id;sensor_type;location;lat;lon;timestamp;P1;durP1;ratioP1;P2;durP2;ratioP2
4323;SDS011;2175;51.018;6.994;2022-12-28T00:01:16;6.90;;;2.50;;
4323;SDS011;2175;51.018;6.994;2022-12-28T00:03:43;11.20;;;3.30;;
4323;SDS011;2175;51.018;6.994;2022-12-28T00:06:09;15.37;;;3.70;;
4323;SDS011;2175;51.018;6.994;2022-12-28T00:08:35;6.70;;;3.17;;
4323;SDS011;2175;51.018;6.994;2022-12-28T00:11:02;12.70;;;3.20;;
4323;SDS011;2175;51.018;6.994;2022-12-28T00:13:29;13.10;;;3.60;;
4323;SDS011;2175;51.018;6.994;2022-12-28T00:15:55;12.43;;;2.97;;
4323;SDS011;2175;51.018;6.994;2022-12-28T00:18:21;15.63;;;3.00;;
4323;SDS011;2175;51.018;6.994;2022-12-28T00:20:57;6.33;;;3.20;;
4323;SDS011;2175;51.018;6.994;2022-12-28T00:23:23;10.53;;;3.40;;
4323;SDS011;2175;51.018;6.994;2022-12-28T00:25:50;9.30;;;2.87;;
4323;SDS011;2175;51.018;6.994;2022-12-28T00:28:16;12.10;;;3.97;;
4323;SDS011;2175;51.018;6.994;2022-12-28T00:30:42;10.37;;;2.60;;
4323;SDS011;2175;51.018;6.994;2022-12-28T00:33:08;14.17;;;3.10;;
4323;SDS011;2175;51.018;6.994;2022-12-28T00:35:34;12.33;;;2.70;;
4323;SDS011;2175;51.018;6.994;2022-12-28T00:38:00;11.50;;;3.20;;
4323;SDS011;2175;51.018;6.994;2022-12-28T00:40:26;8.53;;;3.03;;
4323;SDS011;2175;51.018;6.994;2022-12-28T00:42:52;9.00;;;3.10;;
4323;SDS011;2175;51.018;6.994;2022-12-28T00:45:18;9.73;;;2.50;;
4323;SDS011;2175;51.018;6.994;2022-12-28T00:47:44;4.73;;;2.30;;
4323;SDS011;2175;51.018;6.994;2022-12-28T00:50:10;11.30;;;3.23;;
4323;SDS011;2175;51.018;6.994;2022-12-28T00:52:36;7.27;;;3.10;;
4323;SDS011;2175;51.018;6.994;2022-12-28T00:55:02;11.67;;;3.33;;
4323;SDS011;2175;51.018;6.994;2022-12-28T00:57:29;12.00;;;2.90;;
4323;SDS011;2175;51.018;6.994;2022-12-28T00:59:55;12.40;;;2.73;;
4323;SDS011;2175;51.018;6.994;2022-12-28T01:02:21;7.50;;;3.20;;
4323;SDS011;2175;51.018;6.994;2022-12-28T01:04:47;10.03;;;3.00;;
4323;SDS011;2175;51.018;6.994;2022-12-28T01:07:13;7.50;;;2.90;;
4323;SDS011;2175;51.018;6.994;2022-12-28T01:09:39;8.40;;;2.57;;
4323;SDS011;2175;51.018;6.994;2022-12-28T01:12:05;12.30;;;3.33;;
4323;SDS011;2175;51.018;6.994;2022-12-28T01:14:31;11.40;;;3.10;;
4323;SDS011;2175;51.018;6.994;2022-12-28T01:16:57;9.07;;;3.43;;
4323;SDS011;2175;51.018;6.994;2022-12-28T01:19:23;5.97;;;2.30;;
4323;SDS011;2175;51.018;6.994;2022-12-28T01:21:49;10.40;;;2.73;;
4323;SDS011;2175;51.018;6.994;2022-12-28T01:24:16;9.47;;;3.40;;
4323;SDS011;2175;51.018;6.994;2022-12-28T01:26:42;11.60;;;2.70;;
4323;SDS011;2175;51.018;6.994;2022-12-28T01:29:08;6.37;;;2.80;;
4323;SDS011;2175;51.018;6.994;2022-12-28T01:31:34;6.83;;;2.63;;
4323;SDS011;2175;51.018;6.994;2022-12-28T01:34:01;11.80;;;3.03;;
4323;SDS011;2175;51.018;6.994;2022-12-28T01:36:28;5.57;;;2.47;;
4323;SDS011;2175;51.018;6.994;2022-12-28T01:38:59;5.40;;;2.97;;
4323;SDS011;2175;51.018;6.994;2022-12-28T01:41:26;9.23;;;3.00;;
4323;SDS011;2175;51.018;6.994;2022-12-28T01:46:22;9.53;;;3.07;;
4323;SDS011;2175;51.018;6.994;2022-12-28T01:51:18;4.37;;;2.60;;
4323;SDS011;2175;51.018;6.994;2022-12-28T01:53:44;4.50;;;2.83;;
4323;SDS011;2175;51.018;6.994;2022-12-28T01:56:11;12.10;;;2.80;;
4323;SDS011;2175;51.018;6.994;2022-12-28T01:58:37;12.53;;;3.27;;
4323;SDS011;2175;51.018;6.994;2022-12-28T02:01:04;9.73;;;3.57;;
4323;SDS011;2175;51.018;6.994;2022-12-28T02:03:30;6.80;;;2.90;;
4323;SDS011;2175;51.018;6.994;2022-12-28T02:05:58;9.80;;;3.07;;
4323;SDS011;2175;51.018;6.994;2022-12-28T02:08:27;13.70;;;3.00;;
4323;SDS011;2175;51.018;6.994;2022-12-28T02:10:54;4.00;;;2.40;;
4323;SDS011;2175;51.018;6.994;2022-12-28T02:13:21;7.47;;;3.00;;
4323;SDS011;2175;51.018;6.994;2022-12-28T02:15:47;8.80;;;2.80;;
4323;SDS011;2175;51.018;6.994;2022-12-28T02:18:14;6.20;;;3.07;;
4323;SDS011;2175;51.018;6.994;2022-12-28T02:26:16;6.33;;;2.70;;
4323;SDS011;2175;51.018;6.994;2022-12-28T02:28:46;6.67;;;2.20;;
4323;SDS011;2175;51.018;6.994;2022-12-28T02:31:20;7.23;;;3.00;;
4323;SDS011;2175;51.018;6.994;2022-12-28T02:34:12;8.73;;;2.60;;
4323;SDS011;2175;51.018;6.994;2022-12-28T02:36:36;4.83;;;2.47;;
4323;SDS011;2175;51.018;6.994;2022-12-28T02:39:23;4.70;;;2.60;;
4323;SDS011;2175;51.018;6.994;2022-12-28T02:41:53;4.10;;;2.70;;
4323;SDS011;2175;51.018;6.994;2022-12-28T02:44:19;6.70;;;2.63;;
4323;SDS011;2175;51.018;6.994;2022-12-28T02:47:15;9.60;;;3.20;;
4323;SDS011;2175;51.018;6.994;2022-12-28T02:50:00;7.17;;;2.77;;
4323;SDS011;2175;51.018;6.994;2022-12-28T02:52:38;12.13;;;2.87;;
4323;SDS011;2175;51.018;6.994;2022-12-28T02:55:14;4.93;;;2.47;;
4323;SDS011;2175;51.018;6.994;2022-12-28T02:58:07;5.37;;;2.80;;
4323;SDS011;2175;51.018;6.994;2022-12-28T03:03:31;3.63;;;2.77;;
4323;SDS011;2175;51.018;6.994;2022-12-28T03:11:16;7.73;;;2.43;;
4323;SDS011;2175;51.018;6.994;2022-12-28T03:13:49;7.77;;;3.30;;
4323;SDS011;2175;51.018;6.994;2022-12-28T03:16:34;7.47;;;2.90;;
4323;SDS011;2175;51.018;6.994;2022-12-28T03:19:20;5.00;;;2.73;;
4323;SDS011;2175;51.018;6.994;2022-12-28T03:22:05;6.80;;;2.30;;
4323;SDS011;2175;51.018;6.994;2022-12-28T03:24:51;6.53;;;2.77;;
4323;SDS011;2175;51.018;6.994;2022-12-28T03:27:36;6.27;;;2.77;;
4323;SDS011;2175;51.018;6.994;2022-12-28T03:30:21;6.07;;;2.57;;
4323;SDS011;2175;51.018;6.994;2022-12-28T03:33:06;4.73;;;2.53;;
4323;SDS011;2175;51.018;6.994;2022-12-28T03:35:45;6.47;;;3.00;;
4323;SDS011;2175;51.018;6.994;2022-12-28T03:38:16;10.17;;;3.03;;
4323;SDS011;2175;51.018;6.994;2022-12-28T03:40:51;9.33;;;2.77;;
4323;SDS011;2175;51.018;6.994;2022-12-28T03:43:20;5.03;;;2.50;;
4323;SDS011;2175;51.018;6.994;2022-12-28T03:46:11;5.27;;;2.40;;
4323;SDS011;2175;51.018;6.994;2022-12-28T03:48:38;4.90;;;2.77;;
4323;SDS011;2175;51.018;6.994;2022-12-28T03:51:05;9.53;;;3.10;;
4323;SDS011;2175;51.018;6.994;2022-12-28T03:53:39;4.00;;;2.50;;
4323;SDS011;2175;51.018;6.994;2022-12-28T03:56:10;6.73;;;2.67;;
4323;SDS011;2175;51.018;6.994;2022-12-28T03:58:36;6.03;;;2.47;;
4323;SDS011;2175;51.018;6.994;2022-12-28T04:01:02;4.23;;;2.10;;
4323;SDS011;2175;51.018;6.994;2022-12-28T04:03:28;4.27;;;2.57;;
4323;SDS011;2175;51.018;6.994;2022-12-28T04:05:54;4.63;;;3.00;;
4323;SDS011;2175;51.018;6.994;2022-12-28T04:08:20;3.27;;;2.40;;
4323;SDS011;2175;51.018;6.994;2022-12-28T04:10:46;6.60;;;2.67;;
4323;SDS011;2175;51.018;6.994;2022-12-28T04:13:12;7.20;;;2.93;;
4323;SDS011;2175;51.018;6.994;2022-12-28T04:15:38;5.40;;;2.40;;
4323;SDS011;2175;51.018;6.994;2022-12-28T04:18:04;5.00;;;2.80;;
4323;SDS011;2175;51.018;6.994;2022-12-28T04:20:30;7.10;;;2.73;;
4323;SDS011;2175;51.018;6.994;2022-12-28T04:22:56;9.43;;;2.83;;
4323;SDS011;2175;51.018;6.994;2022-12-28T04:25:22;4.40;;;2.33;;
4323;SDS011;2175;51.018;6.994;2022-12-28T04:27:48;6.33;;;2.67;;
4323;SDS011;2175;51.018;6.994;2022-12-28T04:30:14;5.90;;;2.70;;
4323;SDS011;2175;51.018;6.994;2022-12-28T04:32:40;5.53;;;2.83;;
4323;SDS011;2175;51.018;6.994;2022-12-28T04:35:06;4.50;;;2.30;;
4323;SDS011;2175;51.018;6.994;2022-12-28T04:37:35;4.97;;;2.27;;
4323;SDS011;2175;51.018;6.994;2022-12-28T04:40:01;4.90;;;2.80;;
4323;SDS011;2175;51.018;6.994;2022-12-28T04:42:27;5.83;;;2.13;;
4323;SDS011;2175;51.018;6.994;2022-12-28T04:44:53;3.40;;;2.30;;
4323;SDS011;2175;51.018;6.994;2022-12-28T04:47:19;3.60;;;2.07;;
4323;SDS011;2175;51.018;6.994;2022-12-28T04:49:45;4.30;;;2.47;;
4323;SDS011;2175;51.018;6.994;2022-12-28T04:52:11;8.03;;;2.80;;
4323;SDS011;2175;51.018;6.994;2022-12-28T04:54:37;3.60;;;2.03;;
4323;SDS011;2175;51.018;6.994;2022-12-28T04:57:03;4.87;;;2.00;;
4323;SDS011;2175;51.018;6.994;2022-12-28T04:59:29;4.30;;;1.90;;
4323;SDS011;2175;51.018;6.994;2022-12-28T05:01:55;3.63;;;2.20;;
4323;SDS011;2175;51.018;6.994;2022-12-28T05:04:21;3.60;;;2.27;;
4323;SDS011;2175;51.018;6.994;2022-12-28T05:06:47;2.80;;;1.70;;
4323;SDS011;2175;51.018;6.994;2022-12-28T05:09:13;7.50;;;2.57;;
4323;SDS011;2175;51.018;6.994;2022-12-28T05:11:39;3.57;;;1.57;;
4323;SDS011;2175;51.018;6.994;2022-12-28T05:14:05;7.60;;;3.80;;
4323;SDS011;2175;51.018;6.994;2022-12-28T05:16:31;3.90;;;1.90;;
4323;SDS011;2175;51.018;6.994;2022-12-28T05:18:57;3.07;;;1.90;;
4323;SDS011;2175;51.018;6.994;2022-12-28T05:21:24;3.43;;;2.10;;
4323;SDS011;2175;51.018;6.994;2022-12-28T05:23:50;2.87;;;1.80;;
4323;SDS011;2175;51.018;6.994;2022-12-28T05:26:18;2.50;;;1.70;;
4323;SDS011;2175;51.018;6.994;2022-12-28T05:28:44;2.60;;;1.77;;
4323;SDS011;2175;51.018;6.994;2022-12-28T05:31:12;7.63;;;2.30;;
4323;SDS011;2175;51.018;6.994;2022-12-28T05:33:38;4.70;;;2.03;;
4323;SDS011;2175;51.018;6.994;2022-12-28T05:36:06;9.33;;;1.97;;
4323;SDS011;2175;51.018;6.994;2022-12-28T05:38:32;8.97;;;2.30;;
4323;SDS011;2175;51.018;6.994;2022-12-28T05:43:30;4.63;;;1.70;;
4323;SDS011;2175;51.018;6.994;2022-12-28T05:46:00;6.00;;;2.27;;
4323;SDS011;2175;51.018;6.994;2022-12-28T05:48:29;3.80;;;1.87;;
4323;SDS011;2175;51.018;6.994;2022-12-28T05:50:57;7.20;;;2.70;;
4323;SDS011;2175;51.018;6.994;2022-12-28T05:53:23;5.13;;;1.60;;
4323;SDS011;2175;51.018;6.994;2022-12-28T05:55:49;3.37;;;1.80;;
4323;SDS011;2175;51.018;6.994;2022-12-28T05:58:15;2.97;;;1.57;;
4323;SDS011;2175;51.018;6.994;2022-12-28T06:00:41;9.30;;;1.70;;
4323;SDS011;2175;51.018;6.994;2022-12-28T06:03:07;5.43;;;1.80;;
4323;SDS011;2175;51.018;6.994;2022-12-28T06:05:33;3.67;;;1.63;;
4323;SDS011;2175;51.018;6.994;2022-12-28T06:07:58;3.50;;;1.50;;
4323;SDS011;2175;51.018;6.994;2022-12-28T06:10:24;4.80;;;2.17;;
4323;SDS011;2175;51.018;6.994;2022-12-28T06:12:50;5.80;;;1.90;;
4323;SDS011;2175;51.018;6.994;2022-12-28T06:15:16;6.70;;;1.70;;
4323;SDS011;2175;51.018;6.994;2022-12-28T06:17:42;2.23;;;1.57;;
4323;SDS011;2175;51.018;6.994;2022-12-28T06:20:08;2.73;;;1.50;;
4323;SDS011;2175;51.018;6.994;2022-12-28T06:22:35;3.93;;;1.70;;
4323;SDS011;2175;51.018;6.994;2022-12-28T06:25:01;2.83;;;1.50;;
4323;SDS011;2175;51.018;6.994;2022-12-28T06:27:27;2.03;;;1.50;;
4323;SDS011;2175;51.018;6.994;2022-12-28T06:29:53;3.07;;;1.70;;
4323;SDS011;2175;51.018;6.994;2022-12-28T06:32:18;4.60;;;1.93;;
4323;SDS011;2175;51.018;6.994;2022-12-28T06:34:44;3.17;;;1.63;;
4323;SDS011;2175;51.018;6.994;2022-12-28T06:37:10;3.53;;;1.87;;
4323;SDS011;2175;51.018;6.994;2022-12-28T06:39:36;2.50;;;1.67;;
4323;SDS011;2175;51.018;6.994;2022-12-28T06:42:02;3.03;;;1.80;;
4323;SDS011;2175;51.018;6.994;2022-12-28T06:44:28;5.40;;;1.73;;
4323;SDS011;2175;51.018;6.994;2022-12-28T06:46:54;3.20;;;1.70;;
4323;SDS011;2175;51.018;6.994;2022-12-28T06:49:20;3.40;;;1.40;;
4323;SDS011;2175;51.018;6.994;2022-12-28T06:51:46;2.10;;;1.40;;
4323;SDS011;2175;51.018;6.994;2022-12-28T06:54:12;3.00;;;1.40;;
4323;SDS011;2175;51.018;6.994;2022-12-28T06:56:38;3.10;;;1.73;;
4323;SDS011;2175;51.018;6.994;2022-12-28T06:59:04;3.80;;;1.90;;
4323;SDS011;2175;51.018;6.994;2022-12-28T07:01:32;3.33;;;1.70;;
4323;SDS011;2175;51.018;6.994;2022-12-28T07:03:58;5.20;;;1.90;;
4323;SDS011;2175;51.018;6.994;2022-12-28T07:06:25;3.23;;;1.73;;
4323;SDS011;2175;51.018;6.994;2022-12-28T07:08:57;5.03;;;1.87;;
4323;SDS011;2175;51.018;6.994;2022-12-28T07:11:23;6.00;;;2.33;;
4323;SDS011;2175;51.018;6.994;2022-12-28T07:13:49;3.00;;;1.50;;
4323;SDS011;2175;51.018;6.994;2022-12-28T07:16:16;5.13;;;1.70;;
4323;SDS011;2175;51.018;6.994;2022-12-28T07:18:42;3.23;;;1.53;;
4323;SDS011;2175;51.018;6.994;2022-12-28T07:21:12;2.60;;;1.57;;
4323;SDS011;2175;51.018;6.994;2022-12-28T07:23:39;6.10;;;2.00;;
4323;SDS011;2175;51.018;6.994;2022-12-28T07:26:06;3.70;;;1.80;;
4323;SDS011;2175;51.018;6.994;2022-12-28T07:28:35;3.77;;;1.70;;
4323;SDS011;2175;51.018;6.994;2022-12-28T07:31:05;3.60;;;1.60;;
4323;SDS011;2175;51.018;6.994;2022-12-28T07:33:32;5.87;;;2.07;;
4323;SDS011;2175;51.018;6.994;2022-12-28T07:35:58;5.37;;;1.73;;
4323;SDS011;2175;51.018;6.994;2022-12-28T07:38:24;7.67;;;1.70;;
4323;SDS011;2175;51.018;6.994;2022-12-28T07:40:50;3.50;;;1.93;;
4323;SDS011;2175;51.018;6.994;2022-12-28T07:43:16;10.80;;;1.60;;
4323;SDS011;2175;51.018;6.994;2022-12-28T07:45:42;4.83;;;1.70;;
4323;SDS011;2175;51.018;6.994;2022-12-28T07:48:08;5.03;;;1.60;;
4323;SDS011;2175;51.018;6.994;2022-12-28T07:50:34;4.23;;;1.73;;
4323;SDS011;2175;51.018;6.994;2022-12-28T07:53:00;4.87;;;1.53;;
4323;SDS011;2175;51.018;6.994;2022-12-28T07:55:26;3.33;;;1.77;;
4323;SDS011;2175;51.018;6.994;2022-12-28T07:57:55;3.60;;;2.00;;
4323;SDS011;2175;51.018;6.994;2022-12-28T08:00:21;1.70;;;1.30;;
4323;SDS011;2175;51.018;6.994;2022-12-28T08:02:47;2.33;;;1.50;;
4323;SDS011;2175;51.018;6.994;2022-12-28T08:05:13;2.40;;;1.40;;
4323;SDS011;2175;51.018;6.994;2022-12-28T08:07:39;2.77;;;1.40;;
4323;SDS011;2175;51.018;6.994;2022-12-28T08:10:05;1.40;;;1.17;;
4323;SDS011;2175;51.018;6.994;2022-12-28T08:12:31;2.30;;;1.47;;
4323;SDS011;2175;51.018;6.994;2022-12-28T08:15:00;1.87;;;1.40;;
4323;SDS011;2175;51.018;6.994;2022-12-28T08:17:26;3.43;;;1.50;;
4323;SDS011;2175;51.018;6.994;2022-12-28T08:19:52;2.70;;;1.37;;
4323;SDS011;2175;51.018;6.994;2022-12-28T08:22:19;3.23;;;1.53;;
4323;SDS011;2175;51.018;6.994;2022-12-28T08:24:45;3.43;;;1.50;;
4323;SDS011;2175;51.018;6.994;2022-12-28T08:27:11;2.20;;;1.57;;
4323;SDS011;2175;51.018;6.994;2022-12-28T08:29:37;2.07;;;1.40;;
4323;SDS011;2175;51.018;6.994;2022-12-28T08:32:03;6.03;;;1.47;;
4323;SDS011;2175;51.018;6.994;2022-12-28T08:34:29;1.93;;;1.30;;
4323;SDS011;2175;51.018;6.994;2022-12-28T08:36:55;2.60;;;1.50;;
4323;SDS011;2175;51.018;6.994;2022-12-28T08:39:21;2.40;;;1.30;;
4323;SDS011;2175;51.018;6.994;2022-12-28T08:41:47;3.53;;;1.53;;
4323;SDS011;2175;51.018;6.994;2022-12-28T08:44:13;2.77;;;1.30;;
4323;SDS011;2175;51.018;6.994;2022-12-28T08:46:39;4.00;;;1.50;;
4323;SDS011;2175;51.018;6.994;2022-12-28T08:49:06;2.30;;;1.33;;
4323;SDS011;2175;51.018;6.994;2022-12-28T08:51:33;3.50;;;1.60;;
4323;SDS011;2175;51.018;6.994;2022-12-28T08:54:00;2.13;;;1.30;;
4323;SDS011;2175;51.018;6.994;2022-12-28T08:56:27;6.47;;;1.80;;
4323;SDS011;2175;51.018;6.994;2022-12-28T08:58:54;1.97;;;1.27;;
4323;SDS011;2175;51.018;6.994;2022-12-28T09:01:21;1.50;;;1.13;;
4323;SDS011;2175;51.018;6.994;2022-12-28T09:03:48;4.33;;;1.40;;
4323;SDS011;2175;51.018;6.994;2022-12-28T09:06:16;3.27;;;1.30;;
4323;SDS011;2175;51.018;6.994;2022-12-28T09:08:42;2.90;;;1.27;;
4323;SDS011;2175;51.018;6.994;2022-12-28T09:11:10;4.10;;;1.60;;
4323;SDS011;2175;51.018;6.994;2022-12-28T09:13:36;2.03;;;1.30;;
4323;SDS011;2175;51.018;6.994;2022-12-28T09:16:04;4.90;;;1.43;;
4323;SDS011;2175;51.018;6.994;2022-12-28T09:18:30;2.00;;;1.30;;
4323;SDS011;2175;51.018;6.994;2022-12-28T09:20:56;3.67;;;1.50;;
4323;SDS011;2175;51.018;6.994;2022-12-28T09:23:28;2.60;;;1.30;;
4323;SDS011;2175;51.018;6.994;2022-12-28T09:25:54;2.47;;;1.40;;
4323;SDS011;2175;51.018;6.994;2022-12-28T09:28:20;2.40;;;1.40;;
4323;SDS011;2175;51.018;6.994;2022-12-28T09:30:46;2.40;;;1.73;;
4323;SDS011;2175;51.018;6.994;2022-12-28T09:33:12;2.00;;;1.30;;
4323;SDS011;2175;51.018;6.994;2022-12-28T09:35:57;2.33;;;1.40;;
4323;SDS011;2175;51.018;6.994;2022-12-28T09:38:23;3.93;;;1.50;;
4323;SDS011;2175;51.018;6.994;2022-12-28T09:40:50;5.00;;;1.40;;
4323;SDS011;2175;51.018;6.994;2022-12-28T09:43:16;2.40;;;1.27;;
4323;SDS011;2175;51.018;6.994;2022-12-28T09:45:42;2.70;;;1.20;;
4323;SDS011;2175;51.018;6.994;2022-12-28T09:48:10;3.93;;;1.17;;
4323;SDS011;2175;51.018;6.994;2022-12-28T09:50:38;2.70;;;1.30;;
4323;SDS011;2175;51.018;6.994;2022-12-28T09:55:34;3.23;;;1.60;;
4323;SDS011;2175;51.018;6.994;2022-12-28T09:58:00;2.40;;;1.20;;
4323;SDS011;2175;51.018;6.994;2022-12-28T10:03:04;1.60;;;1.20;;
4323;SDS011;2175;51.018;6.994;2022-12-28T10:05:31;2.07;;;1.20;;
4323;SDS011;2175;51.018;6.994;2022-12-28T10:07:58;1.80;;;1.20;;
4323;SDS011;2175;51.018;6.994;2022-12-28T10:10:24;1.80;;;1.30;;
4323;SDS011;2175;51.018;6.994;2022-12-28T10:12:50;1.50;;;1.10;;
4323;SDS011;2175;51.018;6.994;2022-12-28T10:15:16;2.27;;;1.20;;
4323;SDS011;2175;51.018;6.994;2022-12-28T10:17:43;2.17;;;1.40;;
4323;SDS011;2175;51.018;6.994;2022-12-28T10:20:16;2.47;;;1.37;;
4323;SDS011;2175;51.018;6.994;2022-12-28T10:22:43;2.20;;;1.10;;
4323;SDS011;2175;51.018;6.994;2022-12-28T10:25:13;2.00;;;1.20;;
4323;SDS011;2175;51.018;6.994;2022-12-28T10:27:41;3.20;;;1.23;;
4323;SDS011;2175;51.018;6.994;2022-12-28T10:30:15;2.03;;;1.40;;
4323;SDS011;2175;51.018;6.994;2022-12-28T10:32:51;2.67;;;1.33;;
4323;SDS011;2175;51.018;6.994;2022-12-28T10:35:21;2.43;;;1.43;;
4323;SDS011;2175;51.018;6.994;2022-12-28T10:37:47;2.13;;;1.30;;
4323;SDS011;2175;51.018;6.994;2022-12-28T10:40:23;1.93;;;1.27;;
4323;SDS011;2175;51.018;6.994;2022-12-28T10:42:51;1.97;;;1.30;;
4323;SDS011;2175;51.018;6.994;2022-12-28T10:45:19;3.20;;;1.50;;
4323;SDS011;2175;51.018;6.994;2022-12-28T10:47:47;2.47;;;1.40;;
4323;SDS011;2175;51.018;6.994;2022-12-28T10:52:58;2.23;;;1.43;;
4323;SDS011;2175;51.018;6.994;2022-12-28T10:55:33;3.20;;;1.40;;
4323;SDS011;2175;51.018;6.994;2022-12-28T10:58:13;2.10;;;1.20;;
4323;SDS011;2175;51.018;6.994;2022-12-28T11:00:39;3.57;;;1.37;;
4323;SDS011;2175;51.018;6.994;2022-12-28T11:03:18;3.13;;;1.63;;
4323;SDS011;2175;51.018;6.994;2022-12-28T11:05:47;1.60;;;1.20;;
4323;SDS011;2175;51.018;6.994;2022-12-28T11:08:14;2.80;;;1.60;;
4323;SDS011;2175;51.018;6.994;2022-12-28T11:10:40;3.03;;;1.33;;
4323;SDS011;2175;51.018;6.994;2022-12-28T11:13:10;3.90;;;1.73;;
4323;SDS011;2175;51.018;6.994;2022-12-28T11:15:42;5.30;;;2.10;;
4323;SDS011;2175;51.018;6.994;2022-12-28T11:18:17;5.30;;;1.80;;
4323;SDS011;2175;51.018;6.994;2022-12-28T11:20:45;7.53;;;2.10;;
4323;SDS011;2175;51.018;6.994;2022-12-28T11:23:19;2.57;;;1.80;;
4323;SDS011;2175;51.018;6.994;2022-12-28T11:25:45;2.57;;;1.63;;
4323;SDS011;2175;51.018;6.994;2022-12-28T11:28:16;4.10;;;2.00;;
4323;SDS011;2175;51.018;6.994;2022-12-28T11:30:43;5.00;;;2.40;;
4323;SDS011;2175;51.018;6.994;2022-12-28T11:33:23;5.20;;;1.90;;
4323;SDS011;2175;51.018;6.994;2022-12-28T11:35:51;3.77;;;1.97;;
4323;SDS011;2175;51.018;6.994;2022-12-28T11:41:03;6.13;;;1.80;;
4323;SDS011;2175;51.018;6.994;2022-12-28T11:43:35;4.57;;;2.07;;
4323;SDS011;2175;51.018;6.994;2022-12-28T11:46:05;4.53;;;1.60;;
4323;SDS011;2175;51.018;6.994;2022-12-28T11:48:38;4.63;;;1.83;;
4323;SDS011;2175;51.018;6.994;2022-12-28T11:51:04;5.27;;;1.97;;
4323;SDS011;2175;51.018;6.994;2022-12-28T12:00:55;3.07;;;2.10;;
4323;SDS011;2175;51.018;6.994;2022-12-28T12:03:42;4.00;;;1.90;;
4323;SDS011;2175;51.018;6.994;2022-12-28T12:06:08;5.70;;;2.30;;
4323;SDS011;2175;51.018;6.994;2022-12-28T12:08:38;3.93;;;2.10;;
4323;SDS011;2175;51.018;6.994;2022-12-28T12:13:43;5.07;;;2.30;;
4323;SDS011;2175;51.018;6.994;2022-12-28T12:16:17;3.30;;;2.20;;
4323;SDS011;2175;51.018;6.994;2022-12-28T12:18:49;10.67;;;2.40;;
4323;SDS011;2175;51.018;6.994;2022-12-28T12:21:20;5.60;;;2.40;;
4323;SDS011;2175;51.018;6.994;2022-12-28T12:23:49;3.00;;;2.20;;
4323;SDS011;2175;51.018;6.994;2022-12-28T12:31:38;4.50;;;2.37;;
4323;SDS011;2175;51.018;6.994;2022-12-28T12:34:09;6.63;;;1.90;;
4323;SDS011;2175;51.018;6.994;2022-12-28T12:44:18;4.10;;;2.27;;
4323;SDS011;2175;51.018;6.994;2022-12-28T12:47:01;7.67;;;2.63;;
4323;SDS011;2175;51.018;6.994;2022-12-28T12:51:59;7.77;;;2.17;;
4323;SDS011;2175;51.018;6.994;2022-12-28T12:57:11;3.77;;;2.10;;
4323;SDS011;2175;51.018;6.994;2022-12-28T13:05:00;5.83;;;2.20;;
4323;SDS011;2175;51.018;6.994;2022-12-28T13:07:27;6.27;;;2.13;;
4323;SDS011;2175;51.018;6.994;2022-12-28T13:09:55;11.43;;;2.00;;
4323;SDS011;2175;51.018;6.994;2022-12-28T13:12:21;5.93;;;2.33;;
4323;SDS011;2175;51.018;6.994;2022-12-28T13:15:01;4.20;;;2.20;;
4323;SDS011;2175;51.018;6.994;2022-12-28T13:17:27;3.80;;;1.90;;
4323;SDS011;2175;51.018;6.994;2022-12-28T13:20:13;2.70;;;1.60;;
4323;SDS011;2175;51.018;6.994;2022-12-28T13:22:43;3.80;;;1.80;;
4323;SDS011;2175;51.018;6.994;2022-12-28T13:25:26;5.23;;;2.20;;
4323;SDS011;2175;51.018;6.994;2022-12-28T13:27:52;6.03;;;2.17;;
4323;SDS011;2175;51.018;6.994;2022-12-28T13:30:19;3.20;;;1.80;;
4323;SDS011;2175;51.018;6.994;2022-12-28T13:32:53;4.30;;;1.97;;
4323;SDS011;2175;51.018;6.994;2022-12-28T13:35:21;4.70;;;2.00;;
4323;SDS011;2175;51.018;6.994;2022-12-28T13:38:04;5.47;;;2.20;;
4323;SDS011;2175;51.018;6.994;2022-12-28T13:40:37;3.57;;;1.80;;
4323;SDS011;2175;51.018;6.994;2022-12-28T13:45:32;4.27;;;1.90;;
4323;SDS011;2175;51.018;6.994;2022-12-28T13:47:59;3.80;;;1.67;;
4323;SDS011;2175;51.018;6.994;2022-12-28T13:50:27;5.77;;;2.20;;
4323;SDS011;2175;51.018;6.994;2022-12-28T13:52:55;4.47;;;2.37;;
4323;SDS011;2175;51.018;6.994;2022-12-28T13:55:24;4.20;;;2.00;;
4323;SDS011;2175;51.018;6.994;2022-12-28T13:57:51;4.77;;;2.40;;
4323;SDS011;2175;51.018;6.994;2022-12-28T14:00:19;4.87;;;2.63;;
4323;SDS011;2175;51.018;6.994;2022-12-28T14:02:46;5.90;;;2.33;;
4323;SDS011;2175;51.018;6.994;2022-12-28T14:05:16;6.30;;;1.90;;
4323;SDS011;2175;51.018;6.994;2022-12-28T14:07:43;5.80;;;2.00;;
4323;SDS011;2175;51.018;6.994;2022-12-28T14:10:09;4.33;;;2.37;;
4323;SDS011;2175;51.018;6.994;2022-12-28T14:12:36;5.97;;;2.20;;
4323;SDS011;2175;51.018;6.994;2022-12-28T14:15:02;7.07;;;2.10;;
4323;SDS011;2175;51.018;6.994;2022-12-28T14:17:28;4.30;;;2.30;;
4323;SDS011;2175;51.018;6.994;2022-12-28T14:19:55;3.93;;;1.90;;
4323;SDS011;2175;51.018;6.994;2022-12-28T14:24:58;6.53;;;2.17;;
4323;SDS011;2175;51.018;6.994;2022-12-28T14:27:24;4.57;;;1.70;;
4323;SDS011;2175;51.018;6.994;2022-12-28T14:29:50;5.03;;;2.03;;
4323;SDS011;2175;51.018;6.994;2022-12-28T14:32:16;4.60;;;2.13;;
4323;SDS011;2175;51.018;6.994;2022-12-28T14:34:42;4.67;;;1.87;;
4323;SDS011;2175;51.018;6.994;2022-12-28T14:37:21;4.80;;;1.93;;
4323;SDS011;2175;51.018;6.994;2022-12-28T14:39:50;4.67;;;2.17;;
4323;SDS011;2175;51.018;6.994;2022-12-28T14:42:17;5.30;;;2.37;;
4323;SDS011;2175;51.018;6.994;2022-12-28T14:44:44;4.20;;;1.93;;
4323;SDS011;2175;51.018;6.994;2022-12-28T14:49:59;10.50;;;2.30;;
4323;SDS011;2175;51.018;6.994;2022-12-28T14:52:35;5.13;;;1.90;;
4323;SDS011;2175;51.018;6.994;2022-12-28T14:57:47;4.70;;;2.67;;
4323;SDS011;2175;51.018;6.994;2022-12-28T15:02:43;5.10;;;1.97;;
4323;SDS011;2175;51.018;6.994;2022-12-28T15:07:54;5.70;;;1.90;;
4323;SDS011;2175;51.018;6.994;2022-12-28T15:10:20;5.43;;;2.10;;
4323;SDS011;2175;51.018;6.994;2022-12-28T15:12:46;3.10;;;1.63;;
4323;SDS011;2175;51.018;6.994;2022-12-28T15:15:12;7.33;;;2.20;;
4323;SDS011;2175;51.018;6.994;2022-12-28T15:17:38;3.70;;;2.00;;
4323;SDS011;2175;51.018;6.994;2022-12-28T15:20:04;8.13;;;2.27;;
4323;SDS011;2175;51.018;6.994;2022-12-28T15:22:31;4.40;;;1.93;;
4323;SDS011;2175;51.018;6.994;2022-12-28T15:24:57;8.73;;;2.40;;
4323;SDS011;2175;51.018;6.994;2022-12-28T15:27:23;6.37;;;2.20;;
4323;SDS011;2175;51.018;6.994;2022-12-28T15:29:49;2.83;;;1.97;;
4323;SDS011;2175;51.018;6.994;2022-12-28T15:32:15;6.93;;;1.90;;
4323;SDS011;2175;51.018;6.994;2022-12-28T15:34:41;3.07;;;2.10;;
4323;SDS011;2175;51.018;6.994;2022-12-28T15:37:07;6.63;;;2.63;;
4323;SDS011;2175;51.018;6.994;2022-12-28T15:39:33;3.70;;;2.03;;
4323;SDS011;2175;51.018;6.994;2022-12-28T15:41:59;6.20;;;2.30;;
4323;SDS011;2175;51.018;6.994;2022-12-28T15:44:25;2.73;;;2.00;;
4323;SDS011;2175;51.018;6.994;2022-12-28T15:46:51;3.13;;;1.97;;
4323;SDS011;2175;51.018;6.994;2022-12-28T15:49:17;5.10;;;1.73;;
4323;SDS011;2175;51.018;6.994;2022-12-28T15:51:44;7.80;;;2.47;;
4323;SDS011;2175;51.018;6.994;2022-12-28T15:54:10;3.90;;;2.20;;
4323;SDS011;2175;51.018;6.994;2022-12-28T15:56:37;7.43;;;2.40;;
4323;SDS011;2175;51.018;6.994;2022-12-28T15:59:05;5.90;;;2.53;;
4323;SDS011;2175;51.018;6.994;2022-12-28T16:01:31;7.10;;;2.50;;
4323;SDS011;2175;51.018;6.994;2022-12-28T16:03:58;3.57;;;1.70;;
4323;SDS011;2175;51.018;6.994;2022-12-28T16:06:25;5.00;;;2.03;;
4323;SDS011;2175;51.018;6.994;2022-12-28T16:08:51;2.67;;;1.63;;
4323;SDS011;2175;51.018;6.994;2022-12-28T16:11:18;3.00;;;1.90;;
4323;SDS011;2175;51.018;6.994;2022-12-28T16:13:51;2.67;;;1.70;;
4323;SDS011;2175;51.018;6.994;2022-12-28T16:16:17;3.43;;;2.10;;
4323;SDS011;2175;51.018;6.994;2022-12-28T16:18:43;4.20;;;1.90;;
4323;SDS011;2175;51.018;6.994;2022-12-28T16:21:10;6.10;;;1.90;;
4323;SDS011;2175;51.018;6.994;2022-12-28T16:23:37;3.87;;;2.03;;
4323;SDS011;2175;51.018;6.994;2022-12-28T16:26:04;3.90;;;2.17;;
4323;SDS011;2175;51.018;6.994;2022-12-28T16:28:30;4.07;;;2.00;;
4323;SDS011;2175;51.018;6.994;2022-12-28T16:30:56;4.93;;;1.93;;
4323;SDS011;2175;51.018;6.994;2022-12-28T16:33:22;2.90;;;1.90;;
4323;SDS011;2175;51.018;6.994;2022-12-28T16:35:49;2.73;;;2.03;;
4323;SDS011;2175;51.018;6.994;2022-12-28T16:38:15;3.63;;;1.60;;
4323;SDS011;2175;51.018;6.994;2022-12-28T16:40:43;4.23;;;2.13;;
4323;SDS011;2175;51.018;6.994;2022-12-28T16:43:09;7.23;;;1.90;;